createdAt,value
2022-12-25T00:01:34.661Z,38.63
2022-12-25T00:04:03.827Z,34.70
2022-12-25T00:06:31.635Z,35.00
2022-12-25T00:08:59.361Z,34.30
2022-12-25T00:11:27.123Z,34.40
2022-12-25T00:13:54.930Z,28.20
2022-12-25T00:16:25.040Z,30.73
2022-12-25T00:18:53.285Z,24.87
2022-12-25T00:21:22.669Z,27.77
2022-12-25T00:23:55.452Z,29.97
2022-12-25T00:26:23.683Z,21.93
2022-12-25T00:28:54.185Z,30.73
2022-12-25T00:31:22.822Z,20.63
2022-12-25T00:33:51.983Z,23.47
2022-12-25T00:36:23.385Z,26.07
2022-12-25T00:38:51.255Z,20.00
2022-12-25T00:41:42.015Z,28.63
2022-12-25T00:44:12.501Z,20.30
2022-12-25T00:46:40.878Z,19.60
2022-12-25T00:49:08.709Z,17.13
2022-12-25T00:51:38.131Z,26.83
2022-12-25T00:54:06.010Z,25.97
2022-12-25T00:56:33.801Z,14.87
2022-12-25T00:59:01.776Z,15.33
2022-12-25T01:01:29.620Z,17.80
2022-12-25T01:03:57.547Z,21.50
2022-12-25T01:06:25.297Z,21.67
2022-12-25T01:09:11.975Z,19.13
2022-12-25T01:11:39.751Z,17.23
2022-12-25T01:14:07.665Z,13.23
2022-12-25T01:16:36.079Z,13.20
2022-12-25T01:19:04.290Z,18.33
2022-12-25T01:21:32.245Z,17.73
2022-12-25T01:24:01.360Z,14.13
2022-12-25T01:26:29.545Z,17.33
2022-12-25T01:28:57.354Z,17.50
2022-12-25T01:31:25.609Z,13.90
2022-12-25T01:33:53.423Z,21.63
2022-12-25T01:36:23.360Z,17.60
2022-12-25T01:38:52.728Z,20.43
2022-12-25T01:41:23.924Z,18.17
2022-12-25T01:44:04.057Z,14.20
2022-12-25T01:46:33.189Z,20.53
2022-12-25T01:49:05.445Z,16.67
2022-12-25T01:51:36.756Z,19.77
2022-12-25T01:54:08.391Z,15.73
2022-12-25T01:56:39.854Z,15.93
2022-12-25T01:59:09.240Z,21.60
2022-12-25T02:01:37.257Z,16.10
2022-12-25T02:04:10.237Z,14.93
2022-12-25T02:06:37.975Z,18.90
2022-12-25T02:09:05.734Z,19.93
2022-12-25T02:11:51.003Z,16.70
2022-12-25T02:14:20.238Z,21.33
2022-12-25T02:16:58.265Z,17.77
2022-12-25T02:19:38.382Z,20.47
2022-12-25T02:22:17.315Z,17.40
2022-12-25T02:24:59.503Z,13.07
2022-12-25T02:28:02.305Z,17.80
2022-12-25T02:30:36.679Z,19.43
2022-12-25T02:33:27.827Z,21.27
2022-12-25T02:35:57.950Z,18.13
2022-12-25T02:38:32.711Z,18.23
2022-12-25T02:41:06.419Z,17.97
2022-12-25T02:43:57.169Z,17.20
2022-12-25T02:46:44.545Z,12.63
2022-12-25T02:49:34.470Z,15.10
2022-12-25T02:52:23.810Z,10.33
2022-12-25T02:55:13.187Z,23.80
2022-12-25T02:58:03.662Z,18.97
2022-12-25T03:00:53.733Z,19.70
2022-12-25T03:03:43.546Z,10.67
2022-12-25T03:06:30.066Z,23.47
2022-12-25T03:09:21.715Z,13.53
2022-12-25T03:11:54.460Z,17.43
2022-12-25T03:14:39.603Z,16.13
2022-12-25T03:17:08.776Z,15.90
2022-12-25T03:19:54.539Z,16.73
2022-12-25T03:22:43.713Z,26.67
2022-12-25T03:25:29.471Z,16.60
2022-12-25T03:27:59.004Z,23.83
2022-12-25T03:30:54.025Z,19.87
2022-12-25T03:33:46.171Z,18.00
2022-12-25T03:36:20.913Z,19.90
2022-12-25T03:39:15.737Z,17.67
2022-12-25T03:42:07.708Z,15.77
2022-12-25T03:45:01.176Z,21.17
2022-12-25T03:47:51.003Z,14.57
2022-12-25T03:50:42.408Z,22.17
2022-12-25T03:53:32.341Z,20.40
2022-12-25T03:56:17.957Z,18.33
2022-12-25T03:59:09.538Z,16.70
2022-12-25T04:01:54.993Z,20.70
2022-12-25T04:04:40.195Z,17.00
2022-12-25T04:07:26.678Z,23.20
2022-12-25T04:10:11.955Z,16.00
2022-12-25T04:13:05.857Z,19.40
2022-12-25T04:15:51.223Z,21.60
2022-12-25T04:18:36.329Z,19.17
2022-12-25T04:21:22.109Z,16.73
2022-12-25T04:24:08.773Z,16.03
2022-12-25T04:26:54.154Z,26.20
2022-12-25T04:29:39.616Z,15.57
2022-12-25T04:32:24.948Z,20.97
2022-12-25T04:35:10.288Z,19.17
2022-12-25T04:37:38.035Z,21.10
2022-12-25T04:40:09.245Z,11.10
2022-12-25T04:42:36.993Z,20.90
2022-12-25T04:45:05.215Z,20.87
2022-12-25T04:47:33.697Z,16.90
2022-12-25T04:50:01.487Z,19.60
2022-12-25T04:52:29.552Z,17.70
2022-12-25T04:54:57.291Z,20.53
2022-12-25T04:57:26.381Z,13.43
2022-12-25T04:59:54.151Z,17.93
2022-12-25T05:02:22.021Z,27.13
2022-12-25T05:04:50.098Z,18.47
2022-12-25T05:07:17.842Z,11.90
2022-12-25T05:09:45.608Z,21.83
2022-12-25T05:12:13.916Z,15.27
2022-12-25T05:14:43.017Z,17.67
2022-12-25T05:17:10.769Z,28.47
2022-12-25T05:19:38.503Z,46.60
2022-12-25T05:22:06.334Z,82.87
2022-12-25T05:24:34.240Z,59.23
2022-12-25T05:27:01.990Z,34.20
2022-12-25T05:29:29.691Z,62.23
2022-12-25T05:31:58.819Z,68.87
2022-12-25T05:34:26.563Z,75.17
2022-12-25T05:36:54.294Z,82.50
2022-12-25T05:39:22.070Z,37.30
2022-12-25T05:41:49.850Z,38.17
2022-12-25T05:44:17.904Z,40.77
2022-12-25T05:46:45.791Z,48.03
2022-12-25T05:49:14.999Z,85.50
2022-12-25T05:51:42.731Z,22.27
2022-12-25T05:54:10.498Z,62.27
2022-12-25T05:56:38.659Z,60.50
2022-12-25T05:59:06.583Z,76.90
2022-12-25T06:01:34.462Z,34.87
2022-12-25T06:04:07.017Z,31.17
2022-12-25T06:06:39.554Z,45.80
2022-12-25T06:09:07.347Z,54.57
2022-12-25T06:11:35.082Z,75.03
2022-12-25T06:14:02.839Z,73.37
2022-12-25T06:16:37.343Z,61.03
2022-12-25T06:19:05.953Z,63.80
2022-12-25T06:21:33.861Z,31.10
2022-12-25T06:24:03.235Z,51.40
2022-12-25T06:26:31.067Z,46.83
2022-12-25T06:28:58.806Z,35.57
2022-12-25T06:31:26.600Z,68.87
2022-12-25T06:33:54.575Z,43.93
2022-12-25T06:36:24.882Z,44.97
2022-12-25T06:38:53.452Z,36.00
2022-12-25T06:41:24.485Z,68.93
2022-12-25T06:43:53.982Z,59.07
2022-12-25T06:46:23.431Z,52.10
2022-12-25T06:48:51.579Z,37.60
2022-12-25T06:51:20.432Z,62.27
2022-12-25T06:53:48.418Z,51.83
2022-12-25T06:56:18.710Z,54.30
2022-12-25T06:58:50.301Z,32.90
2022-12-25T07:01:21.861Z,48.63
2022-12-25T07:03:52.480Z,45.03
2022-12-25T07:06:20.421Z,46.57
2022-12-25T07:08:48.632Z,60.47
2022-12-25T07:11:18.314Z,65.77
2022-12-25T07:13:47.602Z,50.07
2022-12-25T07:16:16.113Z,75.73
2022-12-25T07:18:44.249Z,72.37
2022-12-25T07:21:14.242Z,51.00
2022-12-25T07:23:42.781Z,69.30
2022-12-25T07:26:11.835Z,34.97
2022-12-25T07:28:39.960Z,63.93
2022-12-25T07:31:11.646Z,47.20
2022-12-25T07:33:39.835Z,54.00
2022-12-25T07:36:12.580Z,66.10
2022-12-25T07:38:42.314Z,51.60
2022-12-25T07:41:10.636Z,45.60
2022-12-25T07:43:38.635Z,48.93
2022-12-25T07:46:07.175Z,21.53
2022-12-25T07:48:36.831Z,34.33
2022-12-25T07:51:06.268Z,19.07
2022-12-25T07:53:34.619Z,59.27
2022-12-25T07:56:04.466Z,78.10
2022-12-25T07:58:32.762Z,69.93
2022-12-25T08:01:04.456Z,57.37
2022-12-25T08:03:33.007Z,58.30
2022-12-25T08:06:05.460Z,75.17
2022-12-25T08:08:33.494Z,50.50
2022-12-25T08:11:01.500Z,25.30
2022-12-25T08:13:32.008Z,55.13
2022-12-25T08:16:00.891Z,42.27
2022-12-25T08:18:30.167Z,26.53
2022-12-25T08:21:02.843Z,36.40
2022-12-25T08:23:31.984Z,58.60
2022-12-25T08:26:05.192Z,56.33
2022-12-25T08:28:35.191Z,16.27
2022-12-25T08:31:07.842Z,88.97
2022-12-25T08:33:36.337Z,44.83
2022-12-25T08:36:04.877Z,36.63
2022-12-25T08:38:33.987Z,50.50
2022-12-25T08:41:01.805Z,46.20
2022-12-25T08:43:29.758Z,37.27
2022-12-25T08:45:57.576Z,54.77
2022-12-25T08:48:25.379Z,31.63
2022-12-25T08:50:54.567Z,54.03
2022-12-25T08:53:23.116Z,40.10
2022-12-25T08:55:58.500Z,56.80
2022-12-25T08:58:26.782Z,45.47
2022-12-25T09:00:54.970Z,36.77
2022-12-25T09:03:22.867Z,52.87
2022-12-25T09:05:50.606Z,37.73
2022-12-25T09:08:18.481Z,39.67
2022-12-25T09:10:46.427Z,36.03
2022-12-25T09:13:15.524Z,25.73
2022-12-25T09:15:43.340Z,43.77
2022-12-25T09:18:11.103Z,28.70
2022-12-25T09:20:38.821Z,31.83
2022-12-25T09:23:13.248Z,41.63
2022-12-25T09:25:41.658Z,49.90
2022-12-25T09:28:09.400Z,31.80
2022-12-25T09:30:38.527Z,29.90
2022-12-25T09:33:07.035Z,35.77
2022-12-25T09:35:34.782Z,48.40
2022-12-25T09:38:02.499Z,25.27
2022-12-25T09:40:32.019Z,44.83
2022-12-25T09:43:00.949Z,44.40
2022-12-25T09:45:33.085Z,40.50
2022-12-25T09:48:02.184Z,27.53
2022-12-25T09:50:41.581Z,46.50
2022-12-25T09:53:16.337Z,38.87
2022-12-25T09:55:49.881Z,36.97
2022-12-25T09:58:17.610Z,35.87
2022-12-25T10:00:52.809Z,24.23
2022-12-25T10:03:36.214Z,33.33
2022-12-25T10:06:12.826Z,33.50
2022-12-25T10:08:57.787Z,31.77
2022-12-25T10:11:42.047Z,29.73
2022-12-25T10:14:23.095Z,40.47
2022-12-25T10:17:03.507Z,33.40
2022-12-25T10:19:42.428Z,42.70
2022-12-25T10:22:15.397Z,38.77
2022-12-25T10:24:49.134Z,43.27
2022-12-25T10:27:20.990Z,36.73
2022-12-25T10:29:53.778Z,31.47
2022-12-25T10:32:22.081Z,34.90
2022-12-25T10:34:51.751Z,35.43
2022-12-25T10:37:19.753Z,32.47
2022-12-25T10:39:47.484Z,27.70
2022-12-25T10:42:29.488Z,35.83
2022-12-25T10:44:58.975Z,35.93
2022-12-25T10:47:30.762Z,47.07
2022-12-25T10:50:02.460Z,37.80
2022-12-25T10:52:30.654Z,42.63
2022-12-25T10:54:58.428Z,46.63
2022-12-25T10:57:29.780Z,40.30
2022-12-25T10:59:58.310Z,34.43
2022-12-25T11:02:28.683Z,48.23
2022-12-25T11:05:03.620Z,41.43
2022-12-25T11:07:33.137Z,32.37
2022-12-25T11:10:05.834Z,31.73
2022-12-25T11:12:37.159Z,36.53
2022-12-25T11:15:08.658Z,40.60
2022-12-25T11:17:36.997Z,37.93
2022-12-25T11:20:20.140Z,35.73
2022-12-25T11:22:50.338Z,42.43
2022-12-25T11:25:23.734Z,38.80
2022-12-25T11:27:58.338Z,38.10
2022-12-25T11:30:26.242Z,28.03
2022-12-25T11:32:56.237Z,29.37
2022-12-25T11:35:31.836Z,31.80
2022-12-25T11:37:59.783Z,33.13
2022-12-25T11:40:30.676Z,32.63
2022-12-25T11:43:08.044Z,33.93
2022-12-25T11:45:39.550Z,35.63
2022-12-25T11:48:12.149Z,34.27
2022-12-25T11:50:43.886Z,27.73
2022-12-25T11:53:18.920Z,38.20
2022-12-25T11:55:54.759Z,47.93
2022-12-25T11:58:25.981Z,36.03
2022-12-25T12:00:57.419Z,34.30
2022-12-25T12:03:30.339Z,38.83
2022-12-25T12:06:03.772Z,28.33
2022-12-25T12:08:34.309Z,33.03
2022-12-25T12:11:19.539Z,37.93
2022-12-25T12:14:16.026Z,37.50
2022-12-25T12:16:43.946Z,38.63
2022-12-25T12:19:13.679Z,39.23
2022-12-25T12:21:44.183Z,37.30
2022-12-25T12:24:17.080Z,38.47
2022-12-25T12:26:47.210Z,41.93
2022-12-25T12:29:26.117Z,45.47
2022-12-25T12:31:57.176Z,37.73
2022-12-25T12:34:28.631Z,39.73
2022-12-25T12:37:02.988Z,38.30
2022-12-25T12:39:35.747Z,42.10
2022-12-25T12:42:03.810Z,39.60
2022-12-25T12:44:34.860Z,42.93
2022-12-25T12:47:02.649Z,33.37
2022-12-25T12:49:33.593Z,30.67
2022-12-25T12:52:08.078Z,35.70
2022-12-25T12:54:56.022Z,34.17
2022-12-25T12:57:26.884Z,29.53
2022-12-25T12:59:54.659Z,34.90
2022-12-25T13:02:48.138Z,39.63
2022-12-25T13:05:27.667Z,35.57
2022-12-25T13:08:11.433Z,35.23
2022-12-25T13:10:42.531Z,33.90
2022-12-25T13:13:18.562Z,29.73
2022-12-25T13:15:49.044Z,31.90
2022-12-25T13:18:17.209Z,33.13
2022-12-25T13:20:49.561Z,32.63
2022-12-25T13:23:27.077Z,35.73
2022-12-25T13:25:55.873Z,24.53
2022-12-25T13:28:31.667Z,28.13
2022-12-25T13:31:08.287Z,30.63
2022-12-25T13:33:36.162Z,25.47
2022-12-25T13:36:04.841Z,20.10
2022-12-25T13:38:34.029Z,27.33
2022-12-25T13:41:19.125Z,21.53
2022-12-25T13:43:48.710Z,30.57
2022-12-25T13:46:17.358Z,27.03
2022-12-25T13:48:45.147Z,21.20
2022-12-25T13:51:16.991Z,24.43
2022-12-25T13:53:46.129Z,26.30
2022-12-25T13:56:16.070Z,25.70
2022-12-25T13:58:46.524Z,24.13
2022-12-25T14:01:18.530Z,21.03
2022-12-25T14:03:48.210Z,26.00
2022-12-25T14:06:20.484Z,26.93
2022-12-25T14:08:50.798Z,19.70
2022-12-25T14:11:21.594Z,21.97
2022-12-25T14:13:51.989Z,19.47
2022-12-25T14:16:21.688Z,19.00
2022-12-25T14:18:53.652Z,18.33
2022-12-25T14:21:28.693Z,25.43
2022-12-25T14:23:58.081Z,19.70
2022-12-25T14:26:28.732Z,23.27
2022-12-25T14:29:03.489Z,25.30
2022-12-25T14:31:32.619Z,24.47
2022-12-25T14:34:02.453Z,23.23
2022-12-25T14:36:31.727Z,20.80
2022-12-25T14:39:02.381Z,15.63
2022-12-25T14:41:34.887Z,18.57
2022-12-25T14:44:06.714Z,26.13
2022-12-25T14:46:35.657Z,23.93
2022-12-25T14:49:05.595Z,24.47
2022-12-25T14:51:35.338Z,27.07
2022-12-25T14:54:06.390Z,24.73
2022-12-25T14:56:38.515Z,25.97
2022-12-25T14:59:07.699Z,24.17
2022-12-25T15:01:38.013Z,23.67
2022-12-25T15:04:12.548Z,18.67
2022-12-25T15:06:42.693Z,20.43
2022-12-25T15:09:19.032Z,18.70
2022-12-25T15:11:49.217Z,18.90
2022-12-25T15:14:16.929Z,20.00
2022-12-25T15:16:48.135Z,19.47
2022-12-25T15:19:25.253Z,19.50
2022-12-25T15:21:54.374Z,21.77
2022-12-25T15:24:23.475Z,23.50
2022-12-25T15:26:53.203Z,18.50
2022-12-25T15:29:38.453Z,16.60
2022-12-25T15:32:16.150Z,19.47
2022-12-25T15:34:46.186Z,19.47
2022-12-25T15:37:14.430Z,17.70
2022-12-25T15:39:43.604Z,17.93
2022-12-25T15:42:13.676Z,19.10
2022-12-25T15:44:41.557Z,28.63
2022-12-25T15:47:10.681Z,16.10
2022-12-25T15:49:39.238Z,20.60
2022-12-25T15:52:09.594Z,20.07
2022-12-25T15:54:37.310Z,21.43
2022-12-25T15:57:11.036Z,26.40
2022-12-25T15:59:38.773Z,19.20
2022-12-25T16:02:15.680Z,20.10
2022-12-25T16:04:43.628Z,24.07
2022-12-25T16:07:15.775Z,26.43
2022-12-25T16:09:43.665Z,22.20
2022-12-25T16:12:12.910Z,20.50
2022-12-25T16:14:40.620Z,22.73
2022-12-25T16:17:09.168Z,23.37
2022-12-25T16:19:36.872Z,25.47
2022-12-25T16:22:12.871Z,25.10
2022-12-25T16:24:40.620Z,24.17
2022-12-25T16:27:08.384Z,24.13
2022-12-25T16:29:37.497Z,20.03
2022-12-25T16:32:05.687Z,23.17
2022-12-25T16:34:33.410Z,23.63
2022-12-25T16:37:01.151Z,26.47
2022-12-25T16:39:29.055Z,21.23
2022-12-25T16:41:56.795Z,25.33
2022-12-25T16:44:24.906Z,23.83
2022-12-25T16:46:54.070Z,30.10
2022-12-25T16:49:21.848Z,29.50
2022-12-25T16:51:49.592Z,27.60
2022-12-25T16:54:17.335Z,27.63
2022-12-25T16:56:45.060Z,31.43
2022-12-25T16:59:13.041Z,27.63
2022-12-25T17:01:43.281Z,26.90
2022-12-25T17:04:12.838Z,25.07
2022-12-25T17:06:40.976Z,25.93
2022-12-25T17:09:08.710Z,24.50
2022-12-25T17:11:36.431Z,30.63
2022-12-25T17:14:06.694Z,24.47
2022-12-25T17:16:35.992Z,28.97
2022-12-25T17:19:05.530Z,24.10
2022-12-25T17:21:38.319Z,27.20
2022-12-25T17:24:07.871Z,26.70
2022-12-25T17:26:35.606Z,29.40
2022-12-25T17:29:03.661Z,27.27
2022-12-25T17:31:31.515Z,28.63
2022-12-25T17:34:01.371Z,27.30
2022-12-25T17:36:31.063Z,33.57
2022-12-25T17:39:01.754Z,29.83
2022-12-25T17:41:29.704Z,32.43
2022-12-25T17:43:57.541Z,35.63
2022-12-25T17:46:28.045Z,28.90
2022-12-25T17:48:57.740Z,31.30
2022-12-25T17:51:27.682Z,32.50
2022-12-25T17:53:57.229Z,33.40
2022-12-25T17:56:26.614Z,29.60
2022-12-25T17:58:56.959Z,28.80
2022-12-25T18:01:27.180Z,28.87
2022-12-25T18:03:55.862Z,29.93
2022-12-25T18:06:25.639Z,24.43
2022-12-25T18:08:55.410Z,31.30
2022-12-25T18:11:27.576Z,26.13
2022-12-25T18:13:58.224Z,25.60
2022-12-25T18:16:27.882Z,23.70
2022-12-25T18:18:55.597Z,24.70
2022-12-25T18:21:24.135Z,27.87
2022-12-25T18:23:52.198Z,24.80
2022-12-25T18:26:21.635Z,26.43
2022-12-25T18:28:50.092Z,28.97
2022-12-25T18:31:22.811Z,21.47
2022-12-25T18:33:51.477Z,24.80
2022-12-25T18:36:26.832Z,21.13
2022-12-25T18:38:56.431Z,23.73
2022-12-25T18:41:24.914Z,27.73
2022-12-25T18:43:55.536Z,26.47
2022-12-25T18:46:27.339Z,28.00
2022-12-25T18:48:56.003Z,24.80
2022-12-25T18:51:24.416Z,27.67
2022-12-25T18:53:52.316Z,27.13
2022-12-25T18:56:20.062Z,23.00
2022-12-25T18:58:48.677Z,26.70
2022-12-25T19:01:18.609Z,24.47
2022-12-25T19:03:49.245Z,20.87
2022-12-25T19:06:21.537Z,21.93
2022-12-25T19:08:49.705Z,26.73
2022-12-25T19:11:18.532Z,21.50
2022-12-25T19:13:46.681Z,19.60
2022-12-25T19:16:15.225Z,20.23
2022-12-25T19:18:43.688Z,20.43
2022-12-25T19:21:12.920Z,22.60
2022-12-25T19:23:41.880Z,20.03
2022-12-25T19:26:11.775Z,22.53
2022-12-25T19:28:42.743Z,22.60
2022-12-25T19:31:11.803Z,20.50
2022-12-25T19:33:40.913Z,21.10
2022-12-25T19:36:11.581Z,21.03
2022-12-25T19:38:40.771Z,18.93
2022-12-25T19:41:09.600Z,22.13
2022-12-25T19:43:39.074Z,22.43
2022-12-25T19:46:08.621Z,22.30
2022-12-25T19:48:36.453Z,20.50
2022-12-25T19:51:04.285Z,18.63
2022-12-25T19:53:32.448Z,17.47
2022-12-25T19:56:03.938Z,17.43
2022-12-25T19:58:31.727Z,17.80
2022-12-25T20:01:00.606Z,21.13
2022-12-25T20:03:28.608Z,20.07
2022-12-25T20:05:56.582Z,17.63
2022-12-25T20:08:24.367Z,18.63
2022-12-25T20:10:52.751Z,15.77
2022-12-25T20:13:22.106Z,16.00
2022-12-25T20:15:50.233Z,16.90
2022-12-25T20:18:18.841Z,18.87
2022-12-25T20:20:46.660Z,17.53
2022-12-25T20:23:14.429Z,17.00
2022-12-25T20:25:43.160Z,15.47
2022-12-25T20:28:11.065Z,16.90
2022-12-25T20:30:41.388Z,22.57
2022-12-25T20:33:10.073Z,20.73
2022-12-25T20:35:37.920Z,17.07
2022-12-25T20:38:05.653Z,21.73
2022-12-25T20:40:52.866Z,20.83
2022-12-25T20:43:21.070Z,21.17
2022-12-25T20:45:52.576Z,19.23
2022-12-25T20:48:20.374Z,21.87
2022-12-25T20:50:48.094Z,18.20
2022-12-25T20:53:16.333Z,19.77
2022-12-25T20:55:46.527Z,16.57
2022-12-25T20:58:14.566Z,18.70
2022-12-25T21:00:43.032Z,17.23
2022-12-25T21:03:12.696Z,18.53
2022-12-25T21:05:49.820Z,15.33
2022-12-25T21:08:18.029Z,14.50
2022-12-25T21:10:50.295Z,15.17
2022-12-25T21:13:18.295Z,15.83
2022-12-25T21:15:46.594Z,16.07
2022-12-25T21:18:16.106Z,12.10
2022-12-25T21:20:45.768Z,16.00
2022-12-25T21:23:13.532Z,25.70
2022-12-25T21:25:41.313Z,14.33
2022-12-25T21:28:09.145Z,14.97
2022-12-25T21:30:37.066Z,12.17
2022-12-25T21:33:22.561Z,15.07
2022-12-25T21:35:51.698Z,13.70
2022-12-25T21:38:19.417Z,13.23
2022-12-25T21:40:47.247Z,13.23
2022-12-25T21:43:15.692Z,12.63
2022-12-25T21:45:43.568Z,12.73
2022-12-25T21:48:11.396Z,12.97
2022-12-25T21:50:56.760Z,13.27
2022-12-25T21:53:25.863Z,12.57
2022-12-25T21:55:58.404Z,13.37
2022-12-25T21:58:26.225Z,11.83
2022-12-25T22:00:53.986Z,13.33
2022-12-25T22:03:22.028Z,14.10
2022-12-25T22:06:07.103Z,12.53
2022-12-25T22:08:36.160Z,10.43
2022-12-25T22:11:05.024Z,10.50
2022-12-25T22:13:50.418Z,9.53
2022-12-25T22:16:35.776Z,9.23
2022-12-25T22:19:20.979Z,10.17
2022-12-25T22:21:48.701Z,8.73
2022-12-25T22:24:17.790Z,8.97
2022-12-25T22:26:46.090Z,9.03
2022-12-25T22:29:13.798Z,10.00
2022-12-25T22:31:46.671Z,8.90
2022-12-25T22:34:16.336Z,8.93
2022-12-25T22:36:44.134Z,12.77
2022-12-25T22:39:11.939Z,10.93
2022-12-25T22:41:41.030Z,8.23
2022-12-25T22:44:17.798Z,9.30
2022-12-25T22:46:46.400Z,10.77
2022-12-25T22:49:15.482Z,11.73
2022-12-25T22:51:43.397Z,12.03
2022-12-25T22:54:13.072Z,13.10
2022-12-25T22:56:42.272Z,9.90
2022-12-25T22:59:10.695Z,8.97
2022-12-25T23:01:38.541Z,9.90
2022-12-25T23:04:07.293Z,9.43
2022-12-25T23:06:35.552Z,7.97
2022-12-25T23:09:04.428Z,10.97
2022-12-25T23:11:32.325Z,8.93
2022-12-25T23:14:33.296Z,9.00
2022-12-25T23:17:01.361Z,10.03
2022-12-25T23:19:46.790Z,9.37
2022-12-25T23:22:32.201Z,8.77
2022-12-25T23:25:17.980Z,8.73
2022-12-25T23:27:46.532Z,9.13
2022-12-25T23:30:16.366Z,8.13
2022-12-25T23:32:45.077Z,10.83
2022-12-25T23:35:14.338Z,10.67
2022-12-25T23:37:42.145Z,8.80
2022-12-25T23:40:11.088Z,9.23
2022-12-25T23:42:38.850Z,9.87
2022-12-25T23:45:07.464Z,9.97
2022-12-25T23:47:36.558Z,9.27
2022-12-25T23:50:04.500Z,11.30
2022-12-25T23:52:32.267Z,8.57
2022-12-25T23:55:00.009Z,11.83
2022-12-25T23:57:27.885Z,9.20
2022-12-25T23:59:55.631Z,9.63
